createdAt,value
2023-02-01T00:01:29.062Z,5.80
2023-02-01T00:03:57.874Z,5.87
2023-02-01T00:06:26.370Z,5.87
2023-02-01T00:08:55.902Z,5.47
2023-02-01T00:11:24.788Z,6.00
2023-02-01T00:13:54.715Z,6.03
2023-02-01T00:16:23.731Z,5.27
2023-02-01T00:18:53.029Z,5.70
2023-02-01T00:21:22.290Z,6.33
2023-02-01T00:23:50.773Z,5.50
2023-02-01T00:26:20.173Z,5.90
2023-02-01T00:28:48.722Z,6.30
2023-02-01T00:31:18.585Z,6.00
2023-02-01T00:33:49.351Z,5.53
2023-02-01T00:36:18.078Z,6.43
2023-02-01T00:38:46.497Z,6.07
2023-02-01T00:41:15.711Z,6.20
2023-02-01T00:43:44.441Z,6.07
2023-02-01T00:46:13.037Z,5.87
2023-02-01T00:48:43.195Z,5.60
2023-02-01T00:51:12.861Z,5.93
2023-02-01T00:53:42.525Z,6.27
2023-02-01T00:56:11.304Z,6.40
2023-02-01T00:58:40.061Z,5.90
2023-02-01T01:01:10.044Z,5.90
2023-02-01T01:03:39.332Z,6.40
2023-02-01T01:06:10.099Z,6.00
2023-02-01T01:08:38.966Z,5.70
2023-02-01T01:11:08.352Z,5.90
2023-02-01T01:13:37.083Z,6.37
2023-02-01T01:16:05.858Z,6.13
2023-02-01T01:18:34.699Z,6.23
2023-02-01T01:21:03.501Z,5.77
2023-02-01T01:23:33.247Z,6.37
2023-02-01T01:26:01.648Z,6.10
2023-02-01T01:28:30.228Z,5.47
2023-02-01T01:30:58.653Z,6.50
2023-02-01T01:33:27.199Z,5.90
2023-02-01T01:35:55.551Z,6.33
2023-02-01T01:38:24.438Z,6.00
2023-02-01T01:40:54.164Z,6.57
2023-02-01T01:43:23.408Z,6.50
2023-02-01T01:45:52.873Z,6.43
2023-02-01T01:48:23.995Z,6.00
2023-02-01T01:50:53.620Z,6.50
2023-02-01T01:53:24.966Z,6.43
2023-02-01T01:55:56.028Z,7.40
2023-02-01T01:58:26.294Z,7.27
2023-02-01T02:00:54.994Z,6.77
2023-02-01T02:03:26.606Z,6.70
2023-02-01T02:05:55.929Z,6.60
2023-02-01T02:08:25.126Z,7.20
2023-02-01T02:11:04.115Z,6.57
2023-02-01T02:13:33.893Z,6.53
2023-02-01T02:16:08.463Z,6.40
2023-02-01T02:18:41.511Z,6.93
2023-02-01T02:21:15.389Z,6.53
2023-02-01T02:23:58.616Z,6.97
2023-02-01T02:26:34.486Z,6.73
2023-02-01T02:29:23.938Z,6.77
2023-02-01T02:32:04.342Z,6.73
2023-02-01T02:34:39.689Z,6.40
2023-02-01T02:37:14.510Z,6.80
2023-02-01T02:39:47.736Z,6.80
2023-02-01T02:42:38.167Z,6.13
2023-02-01T02:45:27.025Z,5.60
2023-02-01T02:47:57.553Z,6.67
2023-02-01T02:50:46.910Z,6.17
2023-02-01T02:53:34.343Z,6.33
2023-02-01T02:56:21.158Z,6.20
2023-02-01T02:59:07.368Z,6.10
2023-02-01T03:01:53.832Z,6.30
2023-02-01T03:04:24.624Z,6.57
2023-02-01T03:06:54.561Z,6.07
2023-02-01T03:09:25.402Z,6.50
2023-02-01T03:12:13.109Z,6.03
2023-02-01T03:14:43.634Z,5.60
2023-02-01T03:17:14.712Z,5.93
2023-02-01T03:19:49.443Z,5.87
2023-02-01T03:22:21.013Z,6.33
2023-02-01T03:24:50.820Z,5.93
2023-02-01T03:27:21.076Z,6.00
2023-02-01T03:29:51.600Z,6.50
2023-02-01T03:32:20.311Z,5.40
2023-02-01T03:34:49.537Z,5.73
2023-02-01T03:37:24.524Z,5.70
2023-02-01T03:39:56.686Z,5.13
2023-02-01T03:42:30.441Z,5.63
2023-02-01T03:45:03.797Z,5.13
2023-02-01T03:47:33.909Z,5.40
2023-02-01T03:50:05.281Z,4.83
2023-02-01T03:52:36.861Z,5.30
2023-02-01T03:55:06.967Z,5.00
2023-02-01T03:57:38.152Z,5.77
2023-02-01T04:00:08.129Z,4.50
2023-02-01T04:02:42.754Z,4.40
2023-02-01T04:05:11.356Z,4.90
2023-02-01T04:07:47.189Z,4.57
2023-02-01T04:10:17.470Z,4.90
2023-02-01T04:12:48.059Z,4.60
2023-02-01T04:15:16.594Z,4.30
2023-02-01T04:17:45.021Z,4.67
2023-02-01T04:20:13.861Z,3.93
2023-02-01T04:22:43.629Z,4.47
2023-02-01T04:25:12.077Z,4.50
2023-02-01T04:27:43.428Z,3.90
2023-02-01T04:30:12.370Z,4.53
2023-02-01T04:32:41.404Z,4.10
2023-02-01T04:35:10.570Z,4.60
2023-02-01T04:37:38.973Z,4.17
2023-02-01T04:40:09.611Z,4.10
2023-02-01T04:42:38.040Z,4.40
2023-02-01T04:45:06.893Z,4.63
2023-02-01T04:47:35.324Z,4.10
2023-02-01T04:50:03.857Z,4.53
2023-02-01T04:52:32.328Z,4.27
2023-02-01T04:55:01.367Z,4.73
2023-02-01T04:57:31.102Z,4.60
2023-02-01T04:59:59.462Z,4.60
2023-02-01T05:02:28.048Z,4.33
2023-02-01T05:04:56.987Z,4.53
2023-02-01T05:07:25.448Z,5.30
2023-02-01T05:09:53.761Z,4.73
2023-02-01T05:12:39.513Z,4.80
2023-02-01T05:15:09.954Z,4.33
2023-02-01T05:17:38.329Z,4.13
2023-02-01T05:20:07.284Z,4.40
2023-02-01T05:22:35.793Z,4.30
2023-02-01T05:25:04.236Z,4.60
2023-02-01T05:27:32.644Z,4.17
2023-02-01T05:30:01.006Z,4.57
2023-02-01T05:32:31.033Z,4.40
2023-02-01T05:34:59.766Z,4.73
2023-02-01T05:37:30.183Z,4.50
2023-02-01T05:39:58.791Z,3.93
2023-02-01T05:42:27.189Z,4.40
2023-02-01T05:44:55.558Z,3.83
2023-02-01T05:47:24.513Z,4.50
2023-02-01T05:49:54.271Z,4.13
2023-02-01T05:52:22.689Z,4.70
2023-02-01T05:54:51.268Z,4.03
2023-02-01T05:57:19.786Z,4.20
2023-02-01T05:59:49.632Z,4.20
2023-02-01T06:02:18.203Z,4.57
2023-02-01T06:04:46.825Z,4.27
2023-02-01T06:07:16.888Z,3.73
2023-02-01T06:09:47.496Z,4.10
2023-02-01T06:12:16.263Z,4.10
2023-02-01T06:14:44.605Z,3.70
2023-02-01T06:17:12.891Z,3.80
2023-02-01T06:19:42.203Z,4.13
2023-02-01T06:22:10.620Z,3.80
2023-02-01T06:24:40.675Z,3.80
2023-02-01T06:27:10.368Z,3.77
2023-02-01T06:29:39.322Z,3.97
2023-02-01T06:32:07.905Z,4.20
2023-02-01T06:34:38.200Z,4.13
2023-02-01T06:37:06.622Z,4.20
2023-02-01T06:39:35.240Z,4.60
2023-02-01T06:42:05.015Z,4.47
2023-02-01T06:44:33.412Z,4.50
2023-02-01T06:47:01.948Z,4.23
2023-02-01T06:49:31.724Z,4.40
2023-02-01T06:52:01.117Z,4.23
2023-02-01T06:54:31.684Z,4.70
2023-02-01T06:57:00.297Z,4.30
2023-02-01T06:59:30.104Z,4.90
2023-02-01T07:01:58.567Z,4.07
2023-02-01T07:04:26.951Z,4.27
2023-02-01T07:06:55.371Z,4.50
2023-02-01T07:09:24.043Z,4.43
2023-02-01T07:11:52.510Z,4.80
2023-02-01T07:14:20.901Z,4.87
2023-02-01T07:16:50.689Z,4.33
2023-02-01T07:19:19.103Z,4.77
2023-02-01T07:21:47.440Z,4.43
2023-02-01T07:24:16.687Z,4.47
2023-02-01T07:26:45.181Z,4.83
2023-02-01T07:29:13.640Z,4.43
2023-02-01T07:31:42.197Z,4.70
2023-02-01T07:34:12.254Z,4.00
2023-02-01T07:36:40.593Z,4.13
2023-02-01T07:39:09.031Z,3.80
2023-02-01T07:41:37.386Z,4.10
2023-02-01T07:44:06.120Z,4.03
2023-02-01T07:46:34.494Z,4.00
2023-02-01T07:49:02.866Z,4.10
2023-02-01T07:51:32.714Z,3.47
2023-02-01T07:54:01.186Z,3.50
2023-02-01T07:56:29.587Z,3.63
2023-02-01T07:58:58.287Z,3.37
2023-02-01T08:01:26.842Z,3.43
2023-02-01T08:03:56.679Z,3.37
2023-02-01T08:06:25.831Z,3.37
2023-02-01T08:08:56.410Z,4.10
2023-02-01T08:11:25.831Z,3.43
2023-02-01T08:13:54.629Z,3.20
2023-02-01T08:16:24.333Z,3.10
2023-02-01T08:18:52.787Z,3.20
2023-02-01T08:21:23.053Z,3.37
2023-02-01T08:23:51.774Z,3.27
2023-02-01T08:26:22.663Z,3.03
2023-02-01T08:28:52.432Z,2.80
2023-02-01T08:31:23.818Z,3.70
2023-02-01T08:33:53.059Z,3.13
2023-02-01T08:36:21.879Z,3.90
2023-02-01T08:38:50.673Z,3.43
2023-02-01T08:41:19.955Z,3.43
2023-02-01T08:43:50.045Z,3.40
2023-02-01T08:46:18.965Z,3.53
2023-02-01T08:48:48.528Z,3.23
2023-02-01T08:51:17.767Z,3.20
2023-02-01T08:53:47.250Z,3.10
2023-02-01T08:56:16.529Z,3.30
2023-02-01T08:58:45.179Z,3.10
2023-02-01T09:01:18.264Z,3.17
2023-02-01T09:03:47.314Z,3.10
2023-02-01T09:06:16.483Z,3.13
2023-02-01T09:08:45.394Z,2.93
2023-02-01T09:11:15.328Z,2.90
2023-02-01T09:13:43.829Z,2.87
2023-02-01T09:16:12.689Z,2.80
2023-02-01T09:18:55.350Z,3.07
2023-02-01T09:21:24.722Z,3.00
2023-02-01T09:23:53.457Z,3.17
2023-02-01T09:26:26.523Z,3.37
2023-02-01T09:28:59.399Z,2.83
2023-02-01T09:31:27.798Z,2.80
2023-02-01T09:33:57.420Z,3.50
2023-02-01T09:36:25.541Z,3.03
2023-02-01T09:38:54.478Z,3.47
2023-02-01T09:41:34.547Z,3.20
2023-02-01T09:44:15.144Z,3.77
2023-02-01T09:46:43.234Z,3.33
2023-02-01T09:49:18.218Z,3.07
2023-02-01T09:51:50.572Z,3.23
2023-02-01T09:54:19.938Z,3.30
2023-02-01T09:56:50.627Z,3.47
2023-02-01T09:59:26.058Z,3.30
2023-02-01T10:01:54.576Z,3.37
2023-02-01T10:04:24.345Z,3.00
2023-02-01T10:06:58.778Z,3.40
2023-02-01T10:09:40.871Z,3.40
2023-02-01T10:12:21.340Z,2.90
2023-02-01T10:14:59.970Z,3.00
2023-02-01T10:17:34.787Z,3.23
2023-02-01T10:20:08.032Z,2.80
2023-02-01T10:23:03.645Z,3.10
2023-02-01T10:25:31.405Z,3.20
2023-02-01T10:28:00.470Z,3.07
2023-02-01T10:30:34.758Z,3.03
2023-02-01T10:33:09.380Z,3.30
2023-02-01T10:35:40.592Z,3.17
2023-02-01T10:38:13.901Z,3.80
2023-02-01T10:40:42.593Z,3.70
2023-02-01T10:43:12.409Z,3.27
2023-02-01T10:45:43.454Z,3.23
2023-02-01T10:48:11.994Z,2.97
2023-02-01T10:50:43.538Z,3.27
2023-02-01T10:53:14.230Z,3.30
2023-02-01T10:55:43.711Z,4.30
2023-02-01T10:58:17.828Z,4.37
2023-02-01T11:00:47.812Z,3.30
2023-02-01T11:03:34.070Z,2.87
2023-02-01T11:06:04.369Z,3.80
2023-02-01T11:08:32.927Z,3.20
2023-02-01T11:11:02.427Z,3.53
2023-02-01T11:13:31.965Z,3.47
2023-02-01T11:16:00.684Z,3.30
2023-02-01T11:18:30.503Z,3.57
2023-02-01T11:20:59.613Z,3.80
2023-02-01T11:23:30.902Z,3.63
2023-02-01T11:26:00.349Z,3.63
2023-02-01T11:28:32.661Z,3.80
2023-02-01T11:31:02.144Z,3.47
2023-02-01T11:33:36.103Z,3.33
2023-02-01T11:36:09.912Z,3.83
2023-02-01T11:38:39.731Z,3.80
2023-02-01T11:41:15.312Z,4.00
2023-02-01T11:43:54.736Z,3.33
2023-02-01T11:46:27.310Z,3.43
2023-02-01T11:48:56.398Z,4.20
2023-02-01T11:51:35.336Z,4.33
2023-02-01T11:54:10.988Z,3.90
2023-02-01T11:56:40.078Z,3.90
2023-02-01T11:59:15.007Z,4.03
2023-02-01T12:01:52.790Z,3.50
2023-02-01T12:04:31.100Z,4.00
2023-02-01T12:06:59.997Z,3.80
2023-02-01T12:09:44.989Z,3.80
2023-02-01T12:12:19.388Z,3.70
2023-02-01T12:14:59.393Z,3.57
2023-02-01T12:17:41.783Z,3.50
2023-02-01T12:20:20.519Z,3.47
2023-02-01T12:22:54.914Z,3.23
2023-02-01T12:25:28.377Z,3.90
2023-02-01T12:28:04.857Z,3.63
2023-02-01T12:30:57.496Z,3.57
2023-02-01T12:33:30.760Z,3.50
2023-02-01T12:36:04.848Z,3.37
2023-02-01T12:38:38.983Z,3.30
2023-02-01T12:41:16.103Z,3.30
2023-02-01T12:43:47.418Z,3.50
2023-02-01T12:46:17.584Z,3.50
2023-02-01T12:48:51.670Z,3.20
2023-02-01T12:51:21.852Z,3.60
2023-02-01T12:53:53.074Z,3.57
2023-02-01T12:56:25.233Z,3.60
2023-02-01T12:58:55.824Z,4.00
2023-02-01T13:01:29.048Z,3.63
2023-02-01T13:04:01.104Z,3.80
2023-02-01T13:06:31.728Z,3.60
2023-02-01T13:09:03.500Z,3.37
2023-02-01T13:11:34.176Z,3.73
2023-02-01T13:14:04.468Z,3.40
2023-02-01T13:16:34.058Z,4.07
2023-02-01T13:19:04.990Z,3.57
2023-02-01T13:21:35.964Z,4.07
2023-02-01T13:24:04.541Z,3.77
2023-02-01T13:26:34.401Z,3.87
2023-02-01T13:29:04.661Z,3.27
2023-02-01T13:31:40.652Z,3.87
2023-02-01T13:34:27.884Z,3.60
2023-02-01T13:37:01.072Z,3.47
2023-02-01T13:39:44.613Z,3.30
2023-02-01T13:42:19.569Z,3.53
2023-02-01T13:44:49.345Z,3.17
2023-02-01T13:47:24.671Z,3.17
2023-02-01T13:49:53.754Z,3.00
2023-02-01T13:52:28.265Z,3.27
2023-02-01T13:55:16.926Z,2.60
2023-02-01T13:57:46.825Z,3.00
2023-02-01T14:00:26.616Z,3.63
2023-02-01T14:03:17.144Z,3.70
2023-02-01T14:06:03.100Z,3.63
2023-02-01T14:08:45.084Z,3.27
2023-02-01T14:11:32.423Z,3.77
2023-02-01T14:14:09.640Z,3.60
2023-02-01T14:16:38.162Z,3.83
2023-02-01T14:19:10.345Z,2.93
2023-02-01T14:21:49.298Z,3.77
2023-02-01T14:24:23.627Z,3.40
2023-02-01T14:26:53.273Z,3.30
2023-02-01T14:29:28.264Z,3.10
2023-02-01T14:32:03.503Z,3.40
2023-02-01T14:34:45.889Z,2.90
2023-02-01T14:37:25.523Z,3.03
2023-02-01T14:39:56.888Z,3.10
2023-02-01T14:42:28.100Z,3.10
2023-02-01T14:45:00.098Z,2.90
2023-02-01T14:47:30.291Z,2.90
2023-02-01T14:50:01.143Z,3.27
2023-02-01T14:52:33.403Z,3.20
2023-02-01T14:55:04.349Z,2.70
2023-02-01T14:57:36.138Z,2.80
2023-02-01T15:00:14.832Z,2.60
2023-02-01T15:02:43.460Z,2.90
2023-02-01T15:05:25.466Z,2.90
2023-02-01T15:07:54.905Z,2.70
2023-02-01T15:10:23.993Z,2.57
2023-02-01T15:12:52.695Z,2.40
2023-02-01T15:15:23.985Z,2.30
2023-02-01T15:17:53.599Z,2.17
2023-02-01T15:20:24.059Z,2.43
2023-02-01T15:22:56.691Z,2.90
2023-02-01T15:25:26.261Z,2.30
2023-02-01T15:27:56.007Z,2.50
2023-02-01T15:30:27.448Z,2.30
2023-02-01T15:33:07.896Z,2.50
2023-02-01T15:35:44.187Z,2.27
2023-02-01T15:38:31.763Z,2.37
2023-02-01T15:41:01.525Z,2.37
2023-02-01T15:43:31.243Z,1.93
2023-02-01T15:46:02.490Z,2.43
2023-02-01T15:48:35.283Z,2.00
2023-02-01T15:51:04.219Z,2.20
2023-02-01T15:53:33.853Z,2.33
2023-02-01T15:56:03.856Z,2.30
2023-02-01T15:58:34.441Z,2.27
2023-02-01T16:01:07.759Z,2.23
2023-02-01T16:03:38.146Z,2.60
2023-02-01T16:06:07.763Z,2.50
2023-02-01T16:08:38.023Z,2.10
2023-02-01T16:11:31.153Z,2.60
2023-02-01T16:13:59.680Z,2.37
2023-02-01T16:16:30.341Z,2.20
2023-02-01T16:18:58.796Z,2.80
2023-02-01T16:21:27.151Z,2.20
2023-02-01T16:23:56.259Z,2.37
2023-02-01T16:26:24.718Z,2.50
2023-02-01T16:28:53.381Z,2.17
2023-02-01T16:31:23.443Z,2.40
2023-02-01T16:33:55.055Z,2.60
2023-02-01T16:36:32.361Z,2.07
2023-02-01T16:39:01.348Z,2.37
2023-02-01T16:41:29.903Z,1.90
2023-02-01T16:43:58.405Z,2.10
2023-02-01T16:46:27.793Z,2.70
2023-02-01T16:48:59.205Z,2.30
2023-02-01T16:51:28.493Z,2.27
2023-02-01T16:53:57.616Z,2.10
2023-02-01T16:56:27.949Z,2.57
2023-02-01T16:58:57.658Z,2.57
2023-02-01T17:01:26.440Z,2.70
2023-02-01T17:03:55.453Z,2.40
2023-02-01T17:06:26.610Z,2.27
2023-02-01T17:08:56.709Z,3.03
2023-02-01T17:11:25.564Z,3.20
2023-02-01T17:13:53.983Z,2.80
2023-02-01T17:16:25.021Z,2.70
2023-02-01T17:18:56.925Z,2.50
2023-02-01T17:21:27.645Z,2.63
2023-02-01T17:23:56.212Z,3.07
2023-02-01T17:26:24.619Z,3.40
2023-02-01T17:28:53.019Z,2.90
2023-02-01T17:31:21.540Z,3.03
2023-02-01T17:33:50.035Z,3.00
2023-02-01T17:36:19.620Z,2.97
2023-02-01T17:39:03.715Z,3.40
2023-02-01T17:41:33.760Z,2.93
2023-02-01T17:44:03.187Z,2.93
2023-02-01T17:46:32.663Z,3.60
2023-02-01T17:49:01.496Z,4.30
2023-02-01T17:51:30.825Z,3.60
2023-02-01T17:54:00.637Z,3.30
2023-02-01T17:56:30.047Z,3.27
2023-02-01T17:58:59.219Z,2.70
2023-02-01T18:01:28.118Z,3.23
2023-02-01T18:03:56.695Z,3.00
2023-02-01T18:06:26.699Z,2.43
2023-02-01T18:08:55.515Z,2.83
2023-02-01T18:11:25.967Z,3.23
2023-02-01T18:13:55.045Z,2.90
2023-02-01T18:16:24.676Z,3.00
2023-02-01T18:18:53.811Z,2.50
2023-02-01T18:21:23.311Z,2.90
2023-02-01T18:23:51.898Z,2.87
2023-02-01T18:26:20.458Z,2.70
2023-02-01T18:28:50.328Z,2.70
2023-02-01T18:31:23.831Z,3.10
2023-02-01T18:33:52.583Z,2.73
2023-02-01T18:36:21.278Z,2.60
2023-02-01T18:38:49.750Z,2.47
2023-02-01T18:41:20.797Z,2.50
2023-02-01T18:43:50.955Z,2.60
2023-02-01T18:46:19.492Z,2.50
2023-02-01T18:48:47.926Z,2.77
2023-02-01T18:51:19.840Z,2.80
2023-02-01T18:53:48.878Z,3.10
2023-02-01T18:56:18.983Z,2.90
2023-02-01T18:58:47.548Z,2.60
2023-02-01T19:01:19.331Z,2.87
2023-02-01T19:03:54.589Z,3.07
2023-02-01T19:06:31.605Z,3.00
2023-02-01T19:09:00.026Z,2.90
2023-02-01T19:11:28.446Z,2.60
2023-02-01T19:13:56.850Z,2.70
2023-02-01T19:16:26.903Z,2.90
2023-02-01T19:18:55.481Z,2.80
2023-02-01T19:21:23.911Z,3.13
2023-02-01T19:23:52.351Z,2.70
2023-02-01T19:26:20.725Z,3.30
2023-02-01T19:28:49.149Z,3.33
2023-02-01T19:31:17.887Z,3.10
2023-02-01T19:33:47.649Z,3.20
2023-02-01T19:36:16.307Z,2.80
2023-02-01T19:38:44.784Z,3.00
2023-02-01T19:41:13.254Z,3.07
2023-02-01T19:43:41.697Z,3.10
2023-02-01T19:46:10.190Z,3.40
2023-02-01T19:48:38.673Z,2.87
2023-02-01T19:51:09.276Z,2.77
2023-02-01T19:53:37.714Z,3.07
2023-02-01T19:56:06.433Z,3.10
2023-02-01T19:58:35.089Z,2.70
2023-02-01T20:01:02.641Z,3.13
2023-02-01T20:03:31.442Z,2.70
2023-02-01T20:06:00.630Z,3.00
2023-02-01T20:08:30.464Z,3.00
2023-02-01T20:10:58.852Z,2.80
2023-02-01T20:13:27.249Z,3.20
2023-02-01T20:15:59.566Z,3.17
2023-02-01T20:18:28.235Z,2.93
2023-02-01T20:20:58.309Z,3.50
2023-02-01T20:23:26.863Z,3.20
2023-02-01T20:26:02.432Z,3.30
2023-02-01T20:28:30.797Z,2.90
2023-02-01T20:30:59.495Z,3.63
2023-02-01T20:33:29.032Z,3.13
2023-02-01T20:35:57.717Z,3.00
2023-02-01T20:38:26.126Z,2.90
2023-02-01T20:40:54.484Z,2.90
2023-02-01T20:43:24.497Z,2.83
2023-02-01T20:45:52.850Z,2.70
2023-02-01T20:48:21.221Z,3.30
2023-02-01T20:50:49.606Z,3.20
2023-02-01T20:53:26.660Z,3.00
2023-02-01T20:55:56.216Z,2.50
2023-02-01T20:58:26.200Z,2.93
2023-02-01T21:00:54.905Z,2.90
2023-02-01T21:03:23.795Z,2.50
2023-02-01T21:05:53.257Z,2.80
2023-02-01T21:08:22.132Z,2.70
2023-02-01T21:10:57.468Z,3.13
2023-02-01T21:13:27.773Z,3.13
2023-02-01T21:15:56.143Z,2.80
2023-02-01T21:18:24.871Z,2.20
2023-02-01T21:20:53.396Z,2.30
2023-02-01T21:23:22.161Z,2.67
2023-02-01T21:25:50.552Z,3.17
2023-02-01T21:28:19.240Z,2.80
2023-02-01T21:30:49.056Z,3.27
2023-02-01T21:33:17.654Z,2.93
2023-02-01T21:35:46.249Z,2.57
2023-02-01T21:38:14.826Z,2.37
2023-02-01T21:40:43.244Z,2.50
2023-02-01T21:43:11.643Z,2.40
2023-02-01T21:45:46.137Z,2.70
2023-02-01T21:48:20.982Z,2.30
2023-02-01T21:50:49.947Z,2.40
2023-02-01T21:53:18.683Z,2.30
2023-02-01T21:55:47.066Z,2.67
2023-02-01T21:58:15.557Z,2.37
2023-02-01T22:00:46.654Z,2.33
2023-02-01T22:03:15.451Z,2.40
2023-02-01T22:05:50.970Z,2.30
2023-02-01T22:08:20.574Z,2.57
2023-02-01T22:10:48.920Z,3.10
2023-02-01T22:13:17.412Z,2.70
2023-02-01T22:15:45.814Z,2.87
2023-02-01T22:18:14.463Z,2.53
2023-02-01T22:20:42.980Z,2.70
2023-02-01T22:23:12.945Z,2.50
2023-02-01T22:25:41.338Z,2.63
2023-02-01T22:28:30.206Z,2.53
2023-02-01T22:31:02.526Z,2.50
2023-02-01T22:33:31.103Z,2.63
2023-02-01T22:35:59.929Z,2.87
2023-02-01T22:38:31.850Z,2.53
2023-02-01T22:41:01.392Z,2.67
2023-02-01T22:43:30.359Z,2.50
2023-02-01T22:46:01.410Z,2.50
2023-02-01T22:48:30.445Z,2.40
2023-02-01T22:51:00.130Z,2.90
2023-02-01T22:53:31.092Z,2.87
2023-02-01T22:56:01.850Z,2.70
2023-02-01T22:58:30.549Z,2.83
2023-02-01T23:00:58.915Z,2.63
2023-02-01T23:03:27.467Z,2.73
2023-02-01T23:05:59.999Z,2.60
2023-02-01T23:08:30.216Z,3.10
2023-02-01T23:11:01.857Z,2.80
2023-02-01T23:13:30.297Z,2.63
2023-02-01T23:15:59.085Z,2.40
2023-02-01T23:18:28.099Z,2.23
2023-02-01T23:20:56.502Z,2.57
2023-02-01T23:23:25.087Z,2.33
2023-02-01T23:25:54.818Z,2.73
2023-02-01T23:28:23.387Z,2.60
2023-02-01T23:30:52.020Z,2.43
2023-02-01T23:33:22.934Z,2.20
2023-02-01T23:35:58.367Z,2.90
2023-02-01T23:38:27.533Z,2.60
2023-02-01T23:41:00.535Z,2.40
2023-02-01T23:43:46.761Z,2.57
2023-02-01T23:46:16.327Z,2.77
2023-02-01T23:48:45.022Z,2.57
2023-02-01T23:51:14.150Z,2.20
2023-02-01T23:53:44.705Z,2.30
2023-02-01T23:56:19.730Z,2.33
2023-02-01T23:58:48.349Z,2.40
